Lompico, California
Current Conditions -  °F | °C
As of 8:53 AM on Tuesday 27 Jan 2015 (Local Time) from KWVI Reporting Station
Overcast Overcast  
Wind Chill: 58°   Ceiling: 9500
Heat Index: 58°   Visibility: 10mi
Dew Point: 49°   Wind: 5mph
Humidity: 72%   Direction: 70°ENE
Pressure: 30.19"   Gusts: NA
Location:  37.0802°N, 122.052°W
Report Text: KWVI 271653Z AUTO 07004KT 10SM OVC095 14/09 A3019 RMK AO2 SLP222 T01440094
Loading
Personal Weather Stations






























Interactive Weather Map New forecast layout! Learn more

10-Day Weather Forecast

Advertisements
Track Severe Weather on mobile